Time;durP1;ratioP1;P1;durP2;ratioP2;P2;SDS_P1;SDS_P2;PMS_P1;PMS_P2;Temp;Humidity;BMP_temperature;BMP_pressure;BME280_temperature;BME280_humidity;BME280_pressure;Samples;Min_cycle;Max_cycle;Signal;HPM_P1;HPM_P2
2024/04/09 00:00:42;;;;;;;11.00;7.65;;;;;;;20.30;52.10;99638.63;5433628;25;94628;-83
2024/04/09 00:03:08;;;;;;;9.48;7.53;;;;;;;19.91;52.74;99606.41;5401544;25;95200;-84
2024/04/09 00:05:39;;;;;;;8.98;7.50;;;;;;;20.19;52.42;99622.72;5369809;25;98326;-83
2024/04/09 00:08:10;;;;;;;11.20;10.20;;;;;;;19.97;52.94;99615.72;5374821;25;94753;-82
2024/04/09 00:10:39;;;;;;;;;;;;;;;19.89;53.00;99629.66;5387134;25;93664;-81
2024/04/09 00:13:05;;;;;;;11.43;10.27;;;;;;;19.88;53.21;99617.31;5392603;25;95276;-82
2024/04/09 00:15:31;;;;;;;11.27;10.18;;;;;;;19.87;53.17;99594.34;5360672;25;98097;-82
2024/04/09 00:18:09;;;;;;;12.50;8.63;;;;;;;20.08;53.18;99611.16;5396594;25;94568;-82
2024/04/09 00:20:39;;;;;;;8.95;8.05;;;;;;;19.98;52.67;99591.59;5372928;25;94916;-84
2024/04/09 00:23:05;;;;;;;11.50;10.40;;;;;;;20.05;52.91;99613.25;5392878;25;98443;-84
2024/04/09 00:25:30;;;;;;;10.10;9.15;;;;;;;19.77;53.05;99593.41;5395548;25;95467;-84
2024/04/09 00:27:56;;;;;;;9.98;8.43;;;;;;;19.75;53.52;99593.56;5450193;25;94688;-83
2024/04/09 00:30:22;;;;;;;9.85;8.07;;;;;;;19.87;52.93;99586.34;5429013;25;94800;-84
2024/04/09 00:32:51;;;;;;;9.45;8.55;;;;;;;19.99;53.08;99611.09;5399300;25;94639;-84
2024/04/09 00:35:17;;;;;;;10.13;8.18;;;;;;;19.51;54.14;99584.91;5390468;25;98345;-84
2024/04/09 00:37:43;;;;;;;7.30;6.70;;;;;;;19.53;53.93;99594.44;5431615;25;94881;-83
2024/04/09 00:40:13;;;;;;;13.10;8.52;;;;;;;19.58;53.94;99576.28;5396973;25;94816;-84
2024/04/09 00:42:39;;;;;;;8.40;7.60;;;;;;;19.64;53.64;99590.91;5453428;25;96342;-84
2024/04/09 00:45:05;;;;;;;8.35;7.28;;;;;;;19.76;53.45;99589.91;5395737;25;94556;-84
2024/04/09 00:47:34;;;;;;;7.65;6.63;;;;;;;19.52;53.63;99590.09;5399610;25;94589;-84
2024/04/09 00:50:11;;;;;;;7.53;6.57;;;;;;;19.45;54.14;99592.41;5362656;25;94685;-84
2024/04/09 00:52:37;;;;;;;9.50;7.70;;;;;;;19.31;54.13;99600.69;5337287;25;97812;-84
2024/04/09 00:55:04;;;;;;;8.60;7.60;;;;;;;19.23;54.48;99576.53;5395564;25;94791;-84
2024/04/09 00:57:30;;;;;;;10.07;7.70;;;;;;;19.32;54.09;99578.44;5425692;25;94793;-84
2024/04/09 00:59:56;;;;;;;7.40;6.78;;;;;;;19.55;53.41;99589.84;5333455;25;94572;-84
2024/04/09 01:02:23;;;;;;;6.38;5.53;;;;;;;19.58;53.46;99581.63;5364830;25;94422;-84
2024/04/09 01:04:58;;;;;;;10.27;6.32;;;;;;;19.53;53.80;99591.78;5398432;25;95619;-84
2024/04/09 01:07:24;;;;;;;7.68;6.72;;;;;;;19.43;53.98;99588.19;5367734;25;94726;-84
2024/04/09 01:09:50;;;;;;;7.80;6.72;;;;;;;19.26;54.05;99562.13;5391181;25;94789;-84
2024/04/09 01:12:15;;;;;;;7.55;6.85;;;;;;;19.35;53.64;99569.38;5397474;25;94542;-84
2024/04/09 01:14:41;;;;;;;7.43;6.07;;;;;;;19.19;54.30;99575.91;5436227;25;94795;-85
2024/04/09 01:17:07;;;;;;;8.80;6.47;;;;;;;19.19;54.25;99589.22;5425382;25;94580;-84
2024/04/09 01:19:33;;;;;;;9.50;6.53;;;;;;;19.00;54.27;99560.63;5367585;25;94435;-84
2024/04/09 01:21:59;;;;;;;11.60;5.70;;;;;;;19.01;54.50;99580.09;5459665;25;94795;-84
2024/04/09 01:24:25;;;;;;;7.65;6.18;;;;;;;19.04;54.03;99577.16;5366357;25;98344;-84
2024/04/09 01:26:54;;;;;;;11.70;5.57;;;;;;;19.08;53.69;99580.41;5426068;25;94807;-84
2024/04/09 01:29:21;;;;;;;10.43;4.90;;;;;;;19.14;53.46;99578.13;5388066;25;94627;-84
2024/04/09 01:31:48;;;;;;;6.45;4.50;;;;;;;19.06;53.39;99561.94;5396468;25;97416;-84
2024/04/09 01:34:15;;;;;;;6.93;6.32;;;;;;;19.28;53.37;99590.28;5455171;25;94655;-84
2024/04/09 01:36:41;;;;;;;5.50;5.00;;;;;;;19.36;52.86;99576.38;5464209;25;94587;-84
2024/04/09 01:39:08;;;;;;;6.18;5.57;;;;;;;19.56;52.88;99590.69;5397938;25;94614;-84
2024/04/09 01:41:37;;;;;;;6.45;5.30;;;;;;;19.37;52.82;99554.97;5399096;25;94581;-84
2024/04/09 01:44:03;;;;;;;7.50;4.32;;;;;;;19.66;52.99;99599.63;5389315;25;94759;-84
2024/04/09 01:46:28;;;;;;;7.05;5.60;;;;;;;19.63;52.56;99597.19;5391914;25;94761;-84
2024/04/09 01:48:54;;;;;;;6.35;5.75;;;;;;;19.62;52.43;99585.69;5436453;25;94637;-84
2024/04/09 01:51:20;;;;;;;7.93;5.55;;;;;;;19.60;52.61;99576.97;5396892;25;94770;-84
2024/04/09 01:53:48;;;;;;;9.02;5.60;;;;;;;19.74;52.63;99591.00;5399737;25;97694;-84
2024/04/09 01:56:17;;;;;;;9.73;5.40;;;;;;;19.48;52.89;99564.69;5351112;25;95279;-85
2024/04/09 01:58:43;;;;;;;10.95;6.28;;;;;;;19.38;53.12;99561.13;5433397;25;93795;-84
2024/04/09 02:01:11;;;;;;;12.45;6.35;;;;;;;19.42;52.79;99562.56;5378539;25;98143;-84
2024/04/09 02:03:38;;;;;;;7.03;6.30;;;;;;;19.47;53.06;99563.03;5366849;25;98219;-84
2024/04/09 02:06:07;;;;;;;10.15;7.03;;;;;;;19.35;53.32;99590.66;5381652;25;94649;-84
2024/04/09 02:08:34;;;;;;;7.90;6.43;;;;;;;19.05;53.93;99584.16;5388797;25;94651;-84
2024/04/09 02:11:01;;;;;;;9.15;7.35;;;;;;;19.21;53.88;99570.50;5376929;25;94714;-83
2024/04/09 02:13:29;;;;;;;8.38;5.65;;;;;;;19.07;54.15;99574.25;5433587;25;94743;-84
2024/04/09 02:16:00;;;;;;;7.00;6.30;;;;;;;19.00;54.36;99546.50;5430412;25;94719;-84
2024/04/09 02:18:26;;;;;;;8.23;6.90;;;;;;;18.75;54.58;99536.97;5373174;25;94641;-84
2024/04/09 02:20:53;;;;;;;7.25;6.53;;;;;;;18.76;54.55;99551.94;5464198;25;94731;-84
2024/04/09 02:23:19;;;;;;;9.18;8.27;;;;;;;18.90;54.43;99564.16;5430077;25;97868;-84
2024/04/09 02:25:45;;;;;;;10.05;9.07;;;;;;;19.11;54.40;99572.19;5375834;25;94710;-83
2024/04/09 02:28:11;;;;;;;7.72;7.13;;;;;;;19.09;54.33;99566.19;5407213;25;93590;-83
2024/04/09 02:30:36;;;;;;;11.38;9.02;;;;;;;18.84;54.07;99543.38;5431302;25;95458;-84
2024/04/09 02:33:02;;;;;;;10.18;8.60;;;;;;;18.77;54.55;99565.13;5433957;25;94650;-84
2024/04/09 02:35:28;;;;;;;9.75;8.98;;;;;;;18.76;54.69;99560.78;5468856;25;94626;-84
2024/04/09 02:37:54;;;;;;;14.05;10.90;;;;;;;18.83;54.45;99568.28;5400200;25;93567;-84
2024/04/09 02:40:19;;;;;;;12.93;11.95;;;;;;;19.07;53.95;99560.13;5432759;25;94680;-84
2024/04/09 02:42:46;;;;;;;13.60;12.57;;;;;;;19.12;53.59;99563.25;5351389;25;98306;-84
2024/04/09 02:45:13;;;;;;;11.85;10.85;;;;;;;19.04;53.44;99550.56;5402500;25;94691;-84
2024/04/09 02:47:39;;;;;;;12.35;11.15;;;;;;;19.00;53.62;99546.50;5402070;25;94765;-84
2024/04/09 02:50:05;;;;;;;12.02;10.18;;;;;;;19.00;53.28;99546.50;5402699;25;93978;-84
2024/04/09 02:52:31;;;;;;;11.57;10.63;;;;;;;18.97;53.66;99560.03;5463381;25;98327;-84
2024/04/09 02:54:56;;;;;;;13.02;11.35;;;;;;;18.93;53.54;99562.06;5462654;25;94815;-84
2024/04/09 02:57:22;;;;;;;12.70;11.38;;;;;;;18.90;54.22;99556.16;5463847;25;94634;-84
2024/04/09 02:59:52;;;;;;;12.02;10.95;;;;;;;18.82;53.58;99547.97;5402167;25;94742;-85
2024/04/09 03:02:17;;;;;;;11.93;10.98;;;;;;;18.93;53.58;99550.59;5468258;25;94607;-83
2024/04/09 03:04:43;;;;;;;11.98;10.90;;;;;;;19.00;53.32;99560.63;5453794;25;94614;-84
2024/04/09 03:07:09;;;;;;;13.32;11.18;;;;;;;18.91;53.25;99526.81;5401862;25;94643;-84
2024/04/09 03:09:34;;;;;;;10.02;9.02;;;;;;;18.83;53.42;99542.53;5458995;25;95162;-84
2024/04/09 03:12:00;;;;;;;13.60;9.80;;;;;;;18.88;53.64;99560.75;5432806;25;97548;-84
2024/04/09 03:14:25;;;;;;;11.52;10.43;;;;;;;18.60;53.75;99535.53;5432181;25;94581;-84
2024/04/09 03:16:51;;;;;;;10.63;8.88;;;;;;;18.73;53.89;99553.06;5434618;25;94555;-84
2024/04/09 03:19:19;;;;;;;10.52;9.60;;;;;;;18.26;54.68;99520.41;5438897;25;94420;-84
2024/04/09 03:21:44;;;;;;;8.98;8.15;;;;;;;18.36;54.62;99536.50;5371507;25;98730;-85
2024/04/09 03:24:10;;;;;;;9.63;8.77;;;;;;;18.39;55.00;99552.19;5370047;25;94656;-84
2024/04/09 03:26:37;;;;;;;9.63;8.02;;;;;;;18.36;55.00;99551.59;5463895;25;94609;-84
2024/04/09 03:29:02;;;;;;;9.88;9.00;;;;;;;18.40;54.32;99529.13;5430157;25;97552;-84
2024/04/09 03:31:28;;;;;;;10.25;9.18;;;;;;;18.49;54.07;99539.88;5396865;25;94965;-84
2024/04/09 03:33:54;;;;;;;8.68;7.80;;;;;;;18.33;54.27;99526.13;5459362;25;94631;-84
2024/04/09 03:36:20;;;;;;;10.70;7.95;;;;;;;18.57;53.81;99539.28;5343490;25;94725;-84
2024/04/09 03:38:46;;;;;;;9.98;9.05;;;;;;;18.41;54.00;99525.50;5389491;25;94027;-84
2024/04/09 03:41:11;;;;;;;10.30;9.38;;;;;;;18.49;54.30;99544.34;5396552;25;98545;-84
2024/04/09 03:43:37;;;;;;;11.75;10.70;;;;;;;18.58;54.32;99553.41;5432578;25;94803;-84
2024/04/09 03:46:12;;;;;;;10.98;10.07;;;;;;;18.51;54.17;99556.53;5401845;25;94686;-84
2024/04/09 03:48:41;;;;;;;12.77;11.73;;;;;;;18.47;53.84;99552.44;5365820;25;97700;-84
2024/04/09 03:51:07;;;;;;;13.77;12.75;;;;;;;18.41;53.86;99547.59;5371574;25;98029;-83
2024/04/09 03:53:32;;;;;;;13.57;12.48;;;;;;;18.68;53.77;99565.84;5361453;25;94628;-85
2024/04/09 03:55:59;;;;;;;13.38;12.38;;;;;;;18.53;53.29;99570.56;5406477;25;94698;-84
2024/04/09 03:58:31;;;;;;;12.90;11.57;;;;;;;18.56;53.69;99561.50;5404117;25;98481;-84
2024/04/09 04:01:01;;;;;;;13.70;12.48;;;;;;;18.55;53.42;99552.66;5369930;25;94718;-84
2024/04/09 04:03:30;;;;;;;14.32;12.75;;;;;;;18.53;53.67;99551.13;5432412;25;95257;-84
2024/04/09 04:05:57;;;;;;;13.18;12.27;;;;;;;18.60;53.79;99554.97;5388937;25;94740;-84
2024/04/09 04:08:27;;;;;;;14.57;13.38;;;;;;;18.58;53.48;99545.44;5400519;25;94509;-84
2024/04/09 04:10:56;;;;;;;16.88;15.27;;;;;;;18.21;53.80;99533.25;5359748;25;98556;-84
2024/04/09 04:13:27;;;;;;;14.10;12.90;;;;;;;18.28;53.76;99536.25;5394979;25;94701;-84
2024/04/09 04:16:14;;;;;;;11.63;10.82;;;;;;;18.51;53.74;99559.19;5397793;25;94629;-84
2024/04/09 04:18:48;;;;;;;10.70;9.90;;;;;;;18.48;53.42;99567.41;5450073;25;94818;-84
2024/04/09 04:21:32;;;;;;;14.18;13.13;;;;;;;18.45;53.28;99564.16;5429635;25;97873;-85
2024/04/09 04:23:58;;;;;;;10.38;9.52;;;;;;;18.44;53.12;99565.97;5389191;25;94860;-84
2024/04/09 04:26:25;;;;;;;14.90;11.50;;;;;;;18.12;54.18;99562.31;5336237;25;94678;-77
2024/04/09 04:28:52;;;;;;;12.70;11.38;;;;;;;17.82;55.09;99540.66;5396186;25;94733;-78
2024/04/09 04:31:22;;;;;;;12.82;11.77;;;;;;;17.60;54.67;99530.81;5387444;25;95267;-77
2024/04/09 04:33:52;;;;;;;12.63;11.63;;;;;;;17.83;55.24;99550.31;5395708;25;94670;-76
2024/04/09 04:36:19;;;;;;;11.10;10.07;;;;;;;17.84;53.68;99562.63;5392654;25;94904;-84
2024/04/09 04:38:45;;;;;;;12.07;11.10;;;;;;;17.67;53.88;99540.94;5364722;25;98515;-85
2024/04/09 04:41:11;;;;;;;13.05;12.13;;;;;;;17.86;53.41;99555.41;5364424;25;98271;-85
2024/04/09 04:43:38;;;;;;;13.63;12.65;;;;;;;17.88;53.31;99550.78;5426628;25;94680;-84
2024/04/09 04:46:04;;;;;;;13.35;12.40;;;;;;;18.28;53.03;99570.78;5371461;25;94536;-86
2024/04/09 04:48:30;;;;;;;11.93;11.05;;;;;;;18.14;53.22;99539.13;5411668;25;97935;-84
2024/04/09 04:50:56;;;;;;;12.85;11.95;;;;;;;17.82;53.57;99543.31;5376647;26;94759;-85
2024/04/09 04:53:21;;;;;;;12.65;11.55;;;;;;;18.21;53.37;99577.53;5401346;26;94586;-84
2024/04/09 04:55:49;;;;;;;10.85;9.95;;;;;;;18.36;53.26;99559.56;5399060;26;94595;-83
2024/04/09 04:58:15;;;;;;;11.70;10.63;;;;;;;18.47;53.06;99562.22;5373730;25;98316;-83
2024/04/09 05:00:41;;;;;;;10.90;10.10;;;;;;;18.26;53.20;99540.84;5347462;26;95158;-85
2024/04/09 05:03:06;;;;;;;11.25;10.30;;;;;;;18.73;52.22;99557.47;5409958;26;94945;-83
2024/04/09 05:05:32;;;;;;;10.55;9.70;;;;;;;19.05;51.97;99568.22;5305502;26;94709;-84
2024/04/09 05:07:58;;;;;;;11.38;10.20;;;;;;;18.93;51.42;99546.13;5362851;25;94560;-82
2024/04/09 05:10:24;;;;;;;12.20;11.20;;;;;;;19.02;51.05;99557.81;5386446;26;94853;-84
2024/04/09 05:12:51;;;;;;;13.40;11.93;;;;;;;19.26;51.16;99570.97;5379983;26;94658;-75
2024/04/09 05:15:17;;;;;;;11.38;10.38;;;;;;;19.60;50.48;99547.69;5381682;25;94653;-76
2024/04/09 05:17:44;;;;;;;13.70;11.15;;;;;;;20.10;49.47;99552.41;5375960;26;98290;-89
2024/04/09 05:20:10;;;;;;;13.45;10.88;;;;;;;20.80;48.02;99548.97;5378056;26;98662;-88
2024/04/09 05:22:39;;;;;;;12.65;11.48;;;;;;;21.25;47.22;99551.13;5309424;26;94629;-87
2024/04/09 05:25:12;;;;;;;13.05;11.95;;;;;;;21.98;45.51;99542.69;5395458;26;94890;-88
2024/04/09 05:27:38;;;;;;;11.52;10.70;;;;;;;22.82;43.94;99526.63;5371041;26;97010;-88
2024/04/09 05:30:05;;;;;;;13.63;12.52;;;;;;;22.88;43.45;99546.59;5342008;26;94679;-88
2024/04/09 05:32:35;;;;;;;13.13;11.93;;;;;;;23.20;42.94;99539.94;5314964;26;94682;-88
2024/04/09 05:35:02;;;;;;;10.45;9.65;;;;;;;23.81;41.80;99525.75;5309206;26;94083;-89
2024/04/09 05:37:28;;;;;;;12.30;11.50;;;;;;;23.69;41.20;99533.19;5301376;26;97855;-88
2024/04/09 05:39:58;;;;;;;14.15;11.95;;;;;;;23.46;41.46;99481.09;5371262;26;98859;-90
2024/04/09 05:42:23;;;;;;;12.60;11.40;;;;;;;23.61;41.95;99537.63;5372898;26;94611;-89
2024/04/09 05:44:49;;;;;;;11.93;10.98;;;;;;;23.77;41.77;99540.47;5312715;26;94707;-89
2024/04/09 05:47:14;;;;;;;11.63;10.75;;;;;;;24.26;40.47;99538.13;5310361;26;96539;-89
2024/04/09 05:49:40;;;;;;;13.48;12.23;;;;;;;24.76;39.10;99502.50;5381395;25;95070;-89
2024/04/09 05:52:06;;;;;;;11.90;10.88;;;;;;;25.19;38.62;99537.34;5325177;26;95376;-89
2024/04/09 05:54:33;;;;;;;11.75;10.60;;;;;;;25.42;38.50;99518.72;5312939;26;94544;-81
2024/04/09 05:57:00;;;;;;;11.18;10.07;;;;;;;26.01;37.96;99526.66;5338904;26;94628;-77
2024/04/09 05:59:26;;;;;;;12.10;11.10;;;;;;;25.60;38.59;99537.38;5327177;26;97917;-75
2024/04/09 06:01:52;;;;;;;12.48;11.05;;;;;;;25.59;37.97;99523.09;5291019;26;94524;-76
2024/04/09 06:04:18;;;;;;;13.30;12.30;;;;;;;25.56;37.96;99547.63;5332823;26;95098;-74
2024/04/09 06:06:46;;;;;;;14.32;13.15;;;;;;;25.87;37.79;99525.47;5358905;26;94574;-75
2024/04/09 06:09:12;;;;;;;14.40;13.25;;;;;;;25.70;37.89;99511.19;5379913;26;97385;-75
2024/04/09 06:11:45;;;;;;;12.25;11.15;;;;;;;26.79;36.49;99512.41;5303285;26;94590;-73
2024/04/09 06:14:13;;;;;;;12.48;11.48;;;;;;;27.46;34.48;99525.31;5338990;26;94664;-75
2024/04/09 06:16:38;;;;;;;12.63;11.73;;;;;;;27.85;34.60;99519.78;5357012;26;97586;-75
2024/04/09 06:19:04;;;;;;;15.70;10.90;;;;;;;27.57;33.97;99506.03;5357726;26;99108;-76
2024/04/09 06:21:30;;;;;;;14.25;11.13;;;;;;;29.44;32.08;99495.84;5307231;26;95311;-75
2024/04/09 06:23:56;;;;;;;11.68;10.32;;;;;;;29.74;31.59;99513.63;5281774;26;94743;-75
2024/04/09 06:26:21;;;;;;;12.32;11.43;;;;;;;31.40;29.30;99518.22;5309138;26;95631;-76
2024/04/09 06:28:47;;;;;;;10.48;9.68;;;;;;;31.74;28.63;99509.06;5337833;26;95864;-77
2024/04/09 06:31:12;;;;;;;11.15;9.98;;;;;;;32.23;28.46;99513.16;5308968;26;94610;-74
2024/04/09 06:33:40;;;;;;;11.82;9.50;;;;;;;33.07;26.75;99511.44;5357686;26;94755;-77
2024/04/09 06:36:17;;;;;;;9.23;4.60;;;;;;;32.92;26.61;99508.97;5338663;26;96973;-76
2024/04/09 06:38:51;;;;;;;9.27;4.65;;;;;;;33.62;26.22;99519.84;5339108;26;99527;-77
2024/04/09 06:41:20;;;;;;;12.30;11.07;;;;;;;34.22;25.45;99476.59;5369221;26;95544;-76
2024/04/09 06:43:46;;;;;;;6.82;6.20;;;;;;;34.12;26.23;99503.50;5360395;26;97004;-76
2024/04/09 06:46:12;;;;;;;7.95;6.40;;;;;;;34.10;26.41;99508.38;5327082;26;96156;-78
2024/04/09 06:48:37;;;;;;;8.50;6.68;;;;;;;34.00;26.30;99475.34;5384892;26;99369;-77
2024/04/09 06:51:03;;;;;;;7.28;6.55;;;;;;;32.81;27.18;99490.63;5359025;26;94765;-76
2024/04/09 06:53:30;;;;;;;9.73;6.97;;;;;;;33.27;27.22;99509.41;5302283;26;94832;-76
2024/04/09 06:55:55;;;;;;;7.85;6.95;;;;;;;33.38;27.25;99501.63;5331170;26;97402;-77
2024/04/09 06:58:21;;;;;;;9.60;8.70;;;;;;;33.75;26.23;99508.88;5353712;26;95520;-76
2024/04/09 07:00:47;;;;;;;8.05;7.20;;;;;;;31.61;28.23;99492.78;5357717;26;94777;-77
2024/04/09 07:03:14;;;;;;;7.82;7.13;;;;;;;32.33;27.71;99488.31;5361635;26;96634;-76
2024/04/09 07:05:41;;;;;;;7.38;6.63;;;;;;;33.24;26.96;99488.09;5356989;26;96374;-77
2024/04/09 07:08:08;;;;;;;9.93;7.60;;;;;;;33.20;26.50;99495.03;5318005;26;96292;-77
2024/04/09 07:10:33;;;;;;;8.65;7.88;;;;;;;31.15;28.78;99499.78;5345942;26;94652;-84
2024/04/09 07:12:59;;;;;;;8.68;7.90;;;;;;;32.42;27.26;99493.28;5353705;26;95096;-84
2024/04/09 07:15:27;;;;;;;8.90;7.95;;;;;;;33.61;26.18;99487.44;5316827;26;99690;-84
2024/04/09 07:17:53;;;;;;;11.35;8.88;;;;;;;34.65;24.90;99485.75;5344250;26;95981;-84
2024/04/09 07:20:19;;;;;;;9.90;7.32;;;;;;;34.74;24.74;99481.66;5366200;26;94684;-84
2024/04/09 07:22:45;;;;;;;7.25;6.55;;;;;;;34.96;24.53;99481.13;5316072;26;95417;-82
2024/04/09 07:25:12;;;;;;;9.32;7.80;;;;;;;35.18;24.89;99478.75;5363663;26;95592;-81
2024/04/09 07:27:39;;;;;;;9.18;8.57;;;;;;;35.01;24.37;99476.66;5324337;26;97006;-81
2024/04/09 07:30:07;;;;;;;8.60;7.68;;;;;;;34.75;24.80;99485.22;5369667;26;94761;-81
2024/04/09 07:32:38;;;;;;;8.35;7.55;;;;;;;35.21;23.94;99470.09;5309505;26;94944;-81
2024/04/09 07:35:04;;;;;;;11.95;8.95;;;;;;;36.17;23.86;99477.09;5345489;26;97573;-81
2024/04/09 07:37:31;;;;;;;10.23;9.30;;;;;;;36.80;22.86;99482.75;5363593;26;97590;-81
2024/04/09 07:39:56;;;;;;;11.85;10.90;;;;;;;36.47;22.93;99482.34;5338226;26;94717;-82
2024/04/09 07:42:22;;;;;;;4.93;2.35;;;;;;;36.25;23.17;99470.44;5363171;26;94971;-83
2024/04/09 07:44:47;;;;;;;3.40;1.73;;;;;;;36.70;22.62;99489.69;5325848;26;99354;-83
2024/04/09 07:47:14;;;;;;;3.30;1.90;;;;;;;36.88;23.08;99479.63;5367355;26;95422;-82
2024/04/09 07:49:39;;;;;;;5.85;2.10;;;;;;;36.65;22.50;99481.41;5314061;26;94670;-83
2024/04/09 07:52:05;;;;;;;6.63;2.20;;;;;;;37.82;22.23;99471.69;5350445;26;95220;-80
2024/04/09 07:54:37;;;;;;;4.30;1.80;;;;;;;36.20;23.10;99467.59;5329193;26;99894;-80
2024/04/09 07:57:03;;;;;;;2.92;1.70;;;;;;;37.89;21.41;99476.16;5355180;26;95654;-81
2024/04/09 07:59:29;;;;;;;8.93;2.78;;;;;;;39.93;20.95;99477.56;5339833;26;94812;-81
2024/04/09 08:01:55;;;;;;;6.30;2.20;;;;;;;39.14;20.84;99482.69;5345553;26;94802;-81
2024/04/09 08:04:20;;;;;;;8.80;3.92;;;;;;;39.02;20.53;99462.81;5344424;26;95233;-83
2024/04/09 08:06:46;;;;;;;8.43;2.05;;;;;;;39.04;20.56;99477.09;5349081;26;94933;-82
2024/04/09 08:09:11;;;;;;;5.25;1.95;;;;;;;37.57;22.25;99472.13;5356769;26;96415;-83
2024/04/09 08:11:43;;;;;;;6.43;2.00;;;;;;;39.17;20.67;99467.63;5336707;26;94973;-82
2024/04/09 08:14:12;;;;;;;5.60;2.13;;;;;;;38.93;20.65;99461.63;5329440;26;96078;-82
2024/04/09 08:16:38;;;;;;;8.07;2.10;;;;;;;39.70;20.47;99478.75;5324127;26;96369;-82
2024/04/09 08:19:04;;;;;;;7.85;2.35;;;;;;;40.09;20.23;99459.25;5300481;26;95345;-83
2024/04/09 08:21:31;;;;;;;4.03;2.05;;;;;;;40.13;20.00;99461.19;5303684;26;96345;-82
2024/04/09 08:24:22;;;;;;;4.00;2.00;;;;;;;41.83;18.73;99465.94;5332044;26;95311;-80
2024/04/09 08:26:49;;;;;;;8.10;2.30;;;;;;;43.16;17.77;99457.09;5324493;26;96733;-81
2024/04/09 08:29:16;;;;;;;5.78;2.60;;;;;;;44.98;16.38;99465.59;5332404;26;95468;-83
2024/04/09 08:31:45;;;;;;;6.22;3.55;;;;;;;47.15;15.16;99461.91;5332683;26;95623;-82
2024/04/09 08:34:11;;;;;;;9.18;5.05;;;;;;;48.23;14.95;99457.91;5327437;26;95408;-82
2024/04/09 08:36:36;;;;;;;14.82;10.48;;;;;;;47.09;15.56;99441.75;5335820;26;96035;-86
2024/04/09 08:39:03;;;;;;;14.35;13.05;;;;;;;46.60;15.17;99448.97;5333545;26;95351;-79
2024/04/09 08:41:29;;;;;;;25.55;23.88;;;;;;;47.53;14.78;99451.19;5324245;26;96109;-80
2024/04/09 08:43:57;;;;;;;9.07;4.30;;;;;;;45.88;15.78;99449.66;5330998;26;96076;-81
2024/04/09 08:46:23;;;;;;;6.57;5.25;;;;;;;48.50;14.61;99448.50;5328369;26;96450;-84
2024/04/09 08:48:50;;;;;;;8.07;2.67;;;;;;;46.88;14.82;99437.84;5325909;26;95426;-79
2024/04/09 08:51:16;;;;;;;4.07;2.20;;;;;;;45.43;16.07;99438.25;5299475;26;97039;-80
2024/04/09 08:53:44;;;;;;;4.75;2.28;;;;;;;42.30;18.25;99450.94;5329340;26;96432;-79
2024/04/09 08:56:09;;;;;;;5.82;2.10;;;;;;;42.58;18.80;99434.81;5296168;26;99163;-79
2024/04/09 08:58:35;;;;;;;3.67;1.83;;;;;;;43.21;18.07;99429.47;5336274;26;96695;-79
2024/04/09 09:01:02;;;;;;;5.22;1.70;;;;;;;38.69;21.10;99430.91;5335218;26;96539;-79
2024/04/09 09:03:28;;;;;;;5.53;2.00;;;;;;;40.51;20.47;99421.50;5298353;26;99972;-83
2024/04/09 09:06:00;;;;;;;8.00;1.90;;;;;;;40.24;20.69;99418.13;5327727;26;99100;-82
2024/04/09 09:08:26;;;;;;;6.85;2.20;;;;;;;41.76;19.45;99413.06;5334609;26;96072;-78
2024/04/09 09:10:58;;;;;;;8.80;2.78;;;;;;;41.16;19.66;99427.44;5298130;26;95597;-79
2024/04/09 09:13:23;;;;;;;3.90;1.90;;;;;;;41.49;19.06;99419.75;5328662;26;96461;-78
2024/04/09 09:15:56;;;;;;;3.50;1.90;;;;;;;46.25;16.27;99418.09;5330538;26;96954;-79
2024/04/09 09:18:25;;;;;;;9.18;1.98;;;;;;;46.00;16.22;99416.72;5327084;26;96113;-79
2024/04/09 09:21:01;;;;;;;5.85;2.00;;;;;;;44.92;16.80;99416.97;5299889;26;95071;-79
2024/04/09 09:23:27;;;;;;;14.23;3.10;;;;;;;47.58;15.20;99406.59;5303952;26;99378;-81
2024/04/09 09:25:54;;;;;;;7.20;2.50;;;;;;;47.53;14.06;99422.59;5322494;26;96280;-80
2024/04/09 09:28:22;;;;;;;7.97;2.60;;;;;;;40.32;19.55;99420.38;5272419;26;95912;-81
2024/04/09 09:30:48;;;;;;;3.03;2.33;;;;;;;45.60;16.66;99410.81;5323093;26;96256;-77
2024/04/09 09:33:30;;;;;;;7.63;2.30;;;;;;;45.21;15.89;99413.16;5301909;26;99052;-81
2024/04/09 09:35:57;;;;;;;6.13;2.58;;;;;;;44.36;16.28;99407.50;5305565;26;99699;-77
2024/04/09 09:38:24;;;;;;;8.13;2.10;;;;;;;39.61;19.81;99420.78;5297834;26;95359;-79
2024/04/09 09:40:53;;;;;;;7.13;1.90;;;;;;;37.03;22.29;99421.66;5328863;26;95487;-89
2024/04/09 09:43:21;;;;;;;4.50;1.52;;;;;;;34.67;24.68;99410.06;5354313;26;99547;-82
2024/04/09 09:45:47;;;;;;;5.95;1.88;;;;;;;36.03;23.64;99397.28;5327703;26;99280;-81
2024/04/09 09:48:19;;;;;;;7.72;1.80;;;;;;;34.39;24.50;99414.19;5294016;26;96912;-82
2024/04/09 09:50:45;;;;;;;6.18;2.17;;;;;;;31.95;27.68;99410.34;5334760;26;95522;-82
2024/04/09 09:53:11;;;;;;;4.35;2.35;;;;;;;31.41;27.88;99411.44;5334351;26;95478;-80
2024/04/09 09:55:37;;;;;;;10.77;5.97;;;;;;;32.02;27.72;99405.72;5292998;26;99096;-79
2024/04/09 09:58:05;;;;;;;10.85;4.75;;;;;;;32.01;27.37;99399.44;5304743;26;96133;-79
2024/04/09 10:00:33;;;;;;;8.32;4.20;;;;;;;30.51;29.64;99408.94;5276153;26;96145;-81
2024/04/09 10:02:59;;;;;;;9.45;4.10;;;;;;;30.97;29.05;99381.16;5326105;26;96563;-81
2024/04/09 10:05:31;;;;;;;10.00;9.10;;;;;;;31.27;29.52;99397.88;5295889;26;96250;-88
2024/04/09 10:07:57;;;;;;;20.92;19.13;;;;;;;30.44;30.19;99395.41;5299455;26;96118;-89
2024/04/09 10:10:26;;;;;;;17.90;13.00;;;;;;;30.80;30.43;99386.13;5302788;26;95539;-84
2024/04/09 10:12:54;;;;;;;10.82;1.98;;;;;;;30.63;30.58;99390.22;5332234;26;95795;-86
2024/04/09 10:15:25;;;;;;;11.25;3.42;;;;;;;30.29;30.92;99385.78;5304356;26;99925;-88
2024/04/09 10:17:56;;;;;;;7.47;1.92;;;;;;;29.84;30.70;99375.31;5337012;26;95289;-85
2024/04/09 10:20:25;;;;;;;7.22;2.40;;;;;;;29.20;31.31;99370.09;5303945;26;94935;-86
2024/04/09 10:22:56;;;;;;;11.38;10.27;;;;;;;29.30;31.23;99357.91;5380434;25;99390;-87
2024/04/09 10:25:22;;;;;;;;;;;;;;;29.38;31.79;99365.06;5340317;25;95946;-85
2024/04/09 10:28:02;;;;;;;9.40;5.30;;;;;;;29.02;32.06;99357.88;5340883;25;96401;-88
2024/04/09 10:30:28;;;;;;;5.43;3.40;;;;;;;28.75;32.78;99369.47;5436202;25;95341;-84
2024/04/09 10:32:57;;;;;;;6.85;4.78;;;;;;;28.70;31.73;99366.50;5407684;25;95702;-84
2024/04/09 10:35:24;;;;;;;6.32;4.72;;;;;;;28.61;31.81;99336.09;5429443;25;96387;-86
2024/04/09 10:37:51;;;;;;;6.03;1.70;;;;;;;28.80;30.60;99380.53;5339075;25;96237;-86
2024/04/09 10:40:17;;;;;;;4.60;1.50;;;;;;;28.37;32.50;99358.88;5437164;25;96474;-88
2024/04/09 10:42:43;;;;;;;8.18;1.35;;;;;;;28.19;32.48;99361.97;5406036;25;95315;-88
2024/04/09 10:45:09;;;;;;;9.18;2.13;;;;;;;28.45;32.23;99364.19;5338056;26;99220;-88
2024/04/09 10:47:35;;;;;;;6.70;2.00;;;;;;;28.28;31.79;99338.44;5399071;25;96176;-84
2024/04/09 10:50:02;;;;;;;16.70;2.35;;;;;;;28.37;31.73;99342.66;5407011;25;95415;-75
2024/04/09 10:52:29;;;;;;;7.15;1.92;;;;;;;28.52;31.60;99351.56;5428224;25;95256;-78
2024/04/09 10:54:54;;;;;;;12.68;2.20;;;;;;;28.06;31.70;99335.66;5431549;25;96171;-76
2024/04/09 10:57:20;;;;;;;7.05;2.08;;;;;;;27.93;32.47;99330.13;5426971;25;95684;-75
2024/04/09 10:59:46;;;;;;;9.50;1.98;;;;;;;27.91;32.02;99341.09;5403261;25;95639;-80
2024/04/09 11:02:13;;;;;;;11.50;1.33;;;;;;;28.17;31.69;99342.44;5396130;25;95569;-82
2024/04/09 11:04:40;;;;;;;8.30;2.35;;;;;;;28.07;31.73;99344.59;5399607;25;96259;-83
2024/04/09 11:07:07;;;;;;;7.45;1.98;;;;;;;27.86;31.84;99356.16;5422466;25;95516;-86
2024/04/09 11:09:34;;;;;;;6.40;1.67;;;;;;;27.83;31.89;99346.56;5340529;25;96335;-87
2024/04/09 11:12:00;;;;;;;8.75;1.80;;;;;;;27.97;32.53;99347.59;5373165;25;96673;-84
2024/04/09 11:14:25;;;;;;;7.00;2.17;;;;;;;27.95;31.95;99360.41;5428306;25;96551;-83
2024/04/09 11:16:51;;;;;;;7.43;1.90;;;;;;;27.96;31.78;99360.25;5420249;25;95315;-86
2024/04/09 11:19:25;;;;;;;7.85;1.88;;;;;;;27.86;31.92;99340.81;5427545;25;95454;-82
2024/04/09 11:21:51;;;;;;;4.25;2.00;;;;;;;27.76;32.00;99341.06;5398120;25;100632;-82
2024/04/09 11:24:17;;;;;;;4.28;1.80;;;;;;;27.87;30.34;99341.66;5371952;26;95570;-83
2024/04/09 11:26:43;;;;;;;5.72;1.85;;;;;;;27.99;30.35;99350.94;5396619;25;95542;-83